sensor_id;sensor_type;location;lat;lon;timestamp;temperature;humidity
23869;DHT22;12115;47.128;15.422;2023-03-01T00:01:24;2.80;99.90
23869;DHT22;12115;47.128;15.422;2023-03-01T00:03:52;2.80;99.90
23869;DHT22;12115;47.128;15.422;2023-03-01T00:06:20;2.80;99.90
23869;DHT22;12115;47.128;15.422;2023-03-01T00:08:48;2.70;99.90
23869;DHT22;12115;47.128;15.422;2023-03-01T00:11:19;2.70;99.90
23869;DHT22;12115;47.128;15.422;2023-03-01T00:13:49;2.70;99.90
23869;DHT22;12115;47.128;15.422;2023-03-01T00:16:31;2.60;99.90
23869;DHT22;12115;47.128;15.422;2023-03-01T00:19:01;2.60;99.90
23869;DHT22;12115;47.128;15.422;2023-03-01T00:21:28;2.60;99.90
23869;DHT22;12115;47.128;15.422;2023-03-01T00:23:56;2.50;99.90
23869;DHT22;12115;47.128;15.422;2023-03-01T00:26:25;2.50;99.90
23869;DHT22;12115;47.128;15.422;2023-03-01T00:28:54;2.40;99.90
23869;DHT22;12115;47.128;15.422;2023-03-01T00:31:27;2.40;99.90
23869;DHT22;12115;47.128;15.422;2023-03-01T00:33:56;2.50;99.90
23869;DHT22;12115;47.128;15.422;2023-03-01T00:36:26;2.60;99.90
23869;DHT22;12115;47.128;15.422;2023-03-01T00:38:54;2.60;99.90
23869;DHT22;12115;47.128;15.422;2023-03-01T00:41:22;2.60;99.90
23869;DHT22;12115;47.128;15.422;2023-03-01T00:43:50;2.60;99.90
23869;DHT22;12115;47.128;15.422;2023-03-01T00:46:20;2.60;99.90
23869;DHT22;12115;47.128;15.422;2023-03-01T00:48:48;2.60;99.90
23869;DHT22;12115;47.128;15.422;2023-03-01T00:51:26;2.50;99.90
23869;DHT22;12115;47.128;15.422;2023-03-01T00:53:58;2.50;99.90
23869;DHT22;12115;47.128;15.422;2023-03-01T00:56:26;2.50;99.90
23869;DHT22;12115;47.128;15.422;2023-03-01T00:58:54;2.60;99.90
23869;DHT22;12115;47.128;15.422;2023-03-01T01:01:24;2.50;99.90
23869;DHT22;12115;47.128;15.422;2023-03-01T01:03:57;2.50;99.90
23869;DHT22;12115;47.128;15.422;2023-03-01T01:06:36;2.50;99.90
23869;DHT22;12115;47.128;15.422;2023-03-01T01:09:06;2.50;99.90
23869;DHT22;12115;47.128;15.422;2023-03-01T01:11:34;2.50;99.90
23869;DHT22;12115;47.128;15.422;2023-03-01T01:14:04;2.50;99.90
23869;DHT22;12115;47.128;15.422;2023-03-01T01:16:32;2.60;99.90
23869;DHT22;12115;47.128;15.422;2023-03-01T01:19:00;2.60;99.90
23869;DHT22;12115;47.128;15.422;2023-03-01T01:21:28;2.60;99.90
23869;DHT22;12115;47.128;15.422;2023-03-01T01:23:56;2.60;99.90
23869;DHT22;12115;47.128;15.422;2023-03-01T01:26:32;2.60;99.90
23869;DHT22;12115;47.128;15.422;2023-03-01T01:29:01;2.60;99.90
23869;DHT22;12115;47.128;15.422;2023-03-01T01:31:29;2.70;99.90
23869;DHT22;12115;47.128;15.422;2023-03-01T01:33:58;2.60;99.90
23869;DHT22;12115;47.128;15.422;2023-03-01T01:36:26;2.70;99.90
23869;DHT22;12115;47.128;15.422;2023-03-01T01:38:54;2.70;99.90
23869;DHT22;12115;47.128;15.422;2023-03-01T01:41:23;2.60;99.90
23869;DHT22;12115;47.128;15.422;2023-03-01T01:49:26;2.60;99.90
23869;DHT22;12115;47.128;15.422;2023-03-01T01:52:03;2.60;99.90
23869;DHT22;12115;47.128;15.422;2023-03-01T01:54:50;2.60;99.90
23869;DHT22;12115;47.128;15.422;2023-03-01T01:57:26;2.60;99.90
23869;DHT22;12115;47.128;15.422;2023-03-01T01:59:57;2.60;99.90
23869;DHT22;12115;47.128;15.422;2023-03-01T02:02:26;2.50;99.90
23869;DHT22;12115;47.128;15.422;2023-03-01T02:05:01;2.50;99.90
23869;DHT22;12115;47.128;15.422;2023-03-01T02:07:30;2.60;99.90
23869;DHT22;12115;47.128;15.422;2023-03-01T02:09:58;2.60;99.90
23869;DHT22;12115;47.128;15.422;2023-03-01T02:12:25;2.60;99.90
23869;DHT22;12115;47.128;15.422;2023-03-01T02:14:54;2.60;99.90
23869;DHT22;12115;47.128;15.422;2023-03-01T02:17:21;2.60;99.90
23869;DHT22;12115;47.128;15.422;2023-03-01T02:20:03;2.60;99.90
23869;DHT22;12115;47.128;15.422;2023-03-01T02:22:36;2.60;99.90
23869;DHT22;12115;47.128;15.422;2023-03-01T02:28:08;2.70;99.90
23869;DHT22;12115;47.128;15.422;2023-03-01T02:30:37;2.70;99.90
23869;DHT22;12115;47.128;15.422;2023-03-01T02:33:26;2.70;99.90
23869;DHT22;12115;47.128;15.422;2023-03-01T02:35:55;2.60;99.90
23869;DHT22;12115;47.128;15.422;2023-03-01T02:38:23;2.60;99.90
23869;DHT22;12115;47.128;15.422;2023-03-01T02:40:51;2.60;99.90
23869;DHT22;12115;47.128;15.422;2023-03-01T02:43:23;2.50;99.90
23869;DHT22;12115;47.128;15.422;2023-03-01T02:45:52;2.50;99.90
23869;DHT22;12115;47.128;15.422;2023-03-01T02:48:20;2.50;99.90
23869;DHT22;12115;47.128;15.422;2023-03-01T02:51:05;2.50;99.90
23869;DHT22;12115;47.128;15.422;2023-03-01T02:53:53;2.50;99.90
23869;DHT22;12115;47.128;15.422;2023-03-01T02:56:20;2.50;99.90
23869;DHT22;12115;47.128;15.422;2023-03-01T02:58:48;2.50;99.90
23869;DHT22;12115;47.128;15.422;2023-03-01T03:01:20;2.60;99.90
23869;DHT22;12115;47.128;15.422;2023-03-01T03:03:47;2.60;99.90
23869;DHT22;12115;47.128;15.422;2023-03-01T03:06:16;2.60;99.90
23869;DHT22;12115;47.128;15.422;2023-03-01T03:08:44;2.60;99.90
23869;DHT22;12115;47.128;15.422;2023-03-01T03:11:11;2.60;99.90
23869;DHT22;12115;47.128;15.422;2023-03-01T03:13:39;2.60;99.90
23869;DHT22;12115;47.128;15.422;2023-03-01T03:16:16;2.60;99.90
23869;DHT22;12115;47.128;15.422;2023-03-01T03:18:44;2.60;99.90
23869;DHT22;12115;47.128;15.422;2023-03-01T03:21:12;2.60;99.90
23869;DHT22;12115;47.128;15.422;2023-03-01T03:23:40;2.60;99.90
23869;DHT22;12115;47.128;15.422;2023-03-01T03:26:07;2.60;99.90
23869;DHT22;12115;47.128;15.422;2023-03-01T03:28:35;2.60;99.90
23869;DHT22;12115;47.128;15.422;2023-03-01T03:31:06;2.60;99.90
23869;DHT22;12115;47.128;15.422;2023-03-01T03:33:34;2.60;99.90
23869;DHT22;12115;47.128;15.422;2023-03-01T03:36:01;2.60;99.90
23869;DHT22;12115;47.128;15.422;2023-03-01T03:38:29;2.60;99.90
23869;DHT22;12115;47.128;15.422;2023-03-01T03:41:02;2.60;99.90
23869;DHT22;12115;47.128;15.422;2023-03-01T03:43:32;2.60;99.90
23869;DHT22;12115;47.128;15.422;2023-03-01T03:46:00;2.60;99.90
23869;DHT22;12115;47.128;15.422;2023-03-01T03:48:27;2.60;99.90
23869;DHT22;12115;47.128;15.422;2023-03-01T03:50:56;2.70;99.90
23869;DHT22;12115;47.128;15.422;2023-03-01T03:53:25;2.70;99.90
23869;DHT22;12115;47.128;15.422;2023-03-01T03:55:53;2.70;99.90
23869;DHT22;12115;47.128;15.422;2023-03-01T03:58:22;2.70;99.90
23869;DHT22;12115;47.128;15.422;2023-03-01T04:00:52;2.70;99.90
23869;DHT22;12115;47.128;15.422;2023-03-01T04:03:20;2.70;99.90
23869;DHT22;12115;47.128;15.422;2023-03-01T04:05:48;2.70;99.90
23869;DHT22;12115;47.128;15.422;2023-03-01T04:08:22;2.70;99.90
23869;DHT22;12115;47.128;15.422;2023-03-01T04:10:53;2.60;99.90
23869;DHT22;12115;47.128;15.422;2023-03-01T04:13:23;2.60;99.90
23869;DHT22;12115;47.128;15.422;2023-03-01T04:15:53;2.70;99.90
23869;DHT22;12115;47.128;15.422;2023-03-01T04:18:22;2.70;99.90
23869;DHT22;12115;47.128;15.422;2023-03-01T04:20:50;2.60;99.90
23869;DHT22;12115;47.128;15.422;2023-03-01T04:23:20;2.70;99.90
23869;DHT22;12115;47.128;15.422;2023-03-01T04:25:58;2.70;99.90
23869;DHT22;12115;47.128;15.422;2023-03-01T04:28:27;2.70;99.90
23869;DHT22;12115;47.128;15.422;2023-03-01T04:30:57;2.70;99.90
23869;DHT22;12115;47.128;15.422;2023-03-01T04:33:25;2.70;99.90
23869;DHT22;12115;47.128;15.422;2023-03-01T04:35:53;2.70;99.90
23869;DHT22;12115;47.128;15.422;2023-03-01T04:38:20;2.70;99.90
23869;DHT22;12115;47.128;15.422;2023-03-01T04:40:48;2.70;99.90
23869;DHT22;12115;47.128;15.422;2023-03-01T04:43:15;2.70;99.90
23869;DHT22;12115;47.128;15.422;2023-03-01T04:45:45;2.70;99.90
23869;DHT22;12115;47.128;15.422;2023-03-01T04:48:13;2.70;99.90
23869;DHT22;12115;47.128;15.422;2023-03-01T04:50:40;2.60;99.90
23869;DHT22;12115;47.128;15.422;2023-03-01T04:53:07;2.60;99.90
23869;DHT22;12115;47.128;15.422;2023-03-01T04:55:36;2.60;99.90
23869;DHT22;12115;47.128;15.422;2023-03-01T04:58:03;2.60;99.90
23869;DHT22;12115;47.128;15.422;2023-03-01T05:00:31;2.60;99.90
23869;DHT22;12115;47.128;15.422;2023-03-01T05:03:01;2.60;99.90
23869;DHT22;12115;47.128;15.422;2023-03-01T05:05:37;2.60;99.90
23869;DHT22;12115;47.128;15.422;2023-03-01T05:08:08;2.60;99.90
23869;DHT22;12115;47.128;15.422;2023-03-01T05:10:36;2.60;99.90
23869;DHT22;12115;47.128;15.422;2023-03-01T05:13:04;2.60;99.90
23869;DHT22;12115;47.128;15.422;2023-03-01T05:15:33;2.60;99.90
23869;DHT22;12115;47.128;15.422;2023-03-01T05:18:01;2.60;99.90
23869;DHT22;12115;47.128;15.422;2023-03-01T05:20:29;2.60;99.90
23869;DHT22;12115;47.128;15.422;2023-03-01T05:22:59;2.60;99.90
23869;DHT22;12115;47.128;15.422;2023-03-01T05:25:27;2.60;99.90
23869;DHT22;12115;47.128;15.422;2023-03-01T05:28:02;2.60;99.90
23869;DHT22;12115;47.128;15.422;2023-03-01T05:30:32;2.60;99.90
23869;DHT22;12115;47.128;15.422;2023-03-01T05:33:00;2.60;99.90
23869;DHT22;12115;47.128;15.422;2023-03-01T05:35:28;2.60;99.90
23869;DHT22;12115;47.128;15.422;2023-03-01T05:37:56;2.60;99.90
23869;DHT22;12115;47.128;15.422;2023-03-01T05:40:24;2.60;99.90
23869;DHT22;12115;47.128;15.422;2023-03-01T05:42:56;2.60;99.90
23869;DHT22;12115;47.128;15.422;2023-03-01T05:45:26;2.60;99.90
23869;DHT22;12115;47.128;15.422;2023-03-01T05:47:54;2.60;99.90
23869;DHT22;12115;47.128;15.422;2023-03-01T05:50:27;2.60;99.90
23869;DHT22;12115;47.128;15.422;2023-03-01T05:53:04;2.60;99.90
23869;DHT22;12115;47.128;15.422;2023-03-01T05:55:33;2.60;99.90
23869;DHT22;12115;47.128;15.422;2023-03-01T05:58:04;2.60;99.90
23869;DHT22;12115;47.128;15.422;2023-03-01T06:00:32;2.70;99.90
23869;DHT22;12115;47.128;15.422;2023-03-01T06:03:00;2.70;99.90
23869;DHT22;12115;47.128;15.422;2023-03-01T06:05:28;2.70;99.90
23869;DHT22;12115;47.128;15.422;2023-03-01T06:07:58;2.70;99.90
23869;DHT22;12115;47.128;15.422;2023-03-01T06:10:25;2.70;99.90
23869;DHT22;12115;47.128;15.422;2023-03-01T06:12:54;2.60;99.90
23869;DHT22;12115;47.128;15.422;2023-03-01T06:15:22;2.60;99.90
23869;DHT22;12115;47.128;15.422;2023-03-01T06:17:50;2.60;99.90
23869;DHT22;12115;47.128;15.422;2023-03-01T06:20:21;2.60;99.90
23869;DHT22;12115;47.128;15.422;2023-03-01T06:22:49;2.60;99.90
23869;DHT22;12115;47.128;15.422;2023-03-01T06:25:19;2.70;99.90
23869;DHT22;12115;47.128;15.422;2023-03-01T06:27:48;2.70;99.90
23869;DHT22;12115;47.128;15.422;2023-03-01T06:30:17;2.70;99.90
23869;DHT22;12115;47.128;15.422;2023-03-01T06:32:45;2.80;99.90
23869;DHT22;12115;47.128;15.422;2023-03-01T06:35:14;2.80;99.90
23869;DHT22;12115;47.128;15.422;2023-03-01T06:37:41;2.80;99.90
23869;DHT22;12115;47.128;15.422;2023-03-01T06:40:09;2.80;99.90
23869;DHT22;12115;47.128;15.422;2023-03-01T06:42:40;2.80;99.90
23869;DHT22;12115;47.128;15.422;2023-03-01T06:45:09;2.80;99.90
23869;DHT22;12115;47.128;15.422;2023-03-01T06:47:36;2.70;99.90
23869;DHT22;12115;47.128;15.422;2023-03-01T06:50:04;2.70;99.90
23869;DHT22;12115;47.128;15.422;2023-03-01T06:52:31;2.80;99.90
23869;DHT22;12115;47.128;15.422;2023-03-01T06:54:59;2.70;99.90
23869;DHT22;12115;47.128;15.422;2023-03-01T06:57:27;2.80;99.90
23869;DHT22;12115;47.128;15.422;2023-03-01T06:59:54;2.80;99.90
23869;DHT22;12115;47.128;15.422;2023-03-01T07:02:22;2.70;99.90
23869;DHT22;12115;47.128;15.422;2023-03-01T07:04:50;2.70;99.90
23869;DHT22;12115;47.128;15.422;2023-03-01T07:07:18;2.70;99.90
23869;DHT22;12115;47.128;15.422;2023-03-01T07:09:46;2.70;99.90
23869;DHT22;12115;47.128;15.422;2023-03-01T07:12:13;2.70;99.90
23869;DHT22;12115;47.128;15.422;2023-03-01T07:14:41;2.70;99.90
23869;DHT22;12115;47.128;15.422;2023-03-01T07:17:08;2.70;99.90
23869;DHT22;12115;47.128;15.422;2023-03-01T07:19:36;2.70;99.90
23869;DHT22;12115;47.128;15.422;2023-03-01T07:22:03;2.80;99.90
23869;DHT22;12115;47.128;15.422;2023-03-01T07:24:31;2.80;99.90
23869;DHT22;12115;47.128;15.422;2023-03-01T07:26:58;2.80;99.90
23869;DHT22;12115;47.128;15.422;2023-03-01T07:29:26;2.90;99.90
23869;DHT22;12115;47.128;15.422;2023-03-01T07:31:53;2.90;99.90
23869;DHT22;12115;47.128;15.422;2023-03-01T07:34:20;2.90;99.90
23869;DHT22;12115;47.128;15.422;2023-03-01T07:36:48;2.80;99.90
23869;DHT22;12115;47.128;15.422;2023-03-01T07:39:15;2.90;99.90
23869;DHT22;12115;47.128;15.422;2023-03-01T07:41:45;2.90;99.90
23869;DHT22;12115;47.128;15.422;2023-03-01T07:44:13;3.00;99.90
23869;DHT22;12115;47.128;15.422;2023-03-01T07:46:40;3.00;99.90
23869;DHT22;12115;47.128;15.422;2023-03-01T07:49:08;2.90;99.90
23869;DHT22;12115;47.128;15.422;2023-03-01T07:51:35;3.00;99.90
23869;DHT22;12115;47.128;15.422;2023-03-01T07:54:02;2.90;99.90
23869;DHT22;12115;47.128;15.422;2023-03-01T07:56:30;2.90;99.90
23869;DHT22;12115;47.128;15.422;2023-03-01T07:58:59;3.00;99.90
23869;DHT22;12115;47.128;15.422;2023-03-01T08:01:26;3.00;99.90
23869;DHT22;12115;47.128;15.422;2023-03-01T08:03:53;3.00;99.90
23869;DHT22;12115;47.128;15.422;2023-03-01T08:06:21;3.10;99.90
23869;DHT22;12115;47.128;15.422;2023-03-01T08:08:48;3.10;99.90
23869;DHT22;12115;47.128;15.422;2023-03-01T08:11:16;3.20;99.90
23869;DHT22;12115;47.128;15.422;2023-03-01T08:13:44;3.20;99.90
23869;DHT22;12115;47.128;15.422;2023-03-01T08:16:17;3.20;99.90
23869;DHT22;12115;47.128;15.422;2023-03-01T08:18:44;3.20;99.90
23869;DHT22;12115;47.128;15.422;2023-03-01T08:21:16;3.20;99.90
23869;DHT22;12115;47.128;15.422;2023-03-01T08:23:44;3.20;99.90
23869;DHT22;12115;47.128;15.422;2023-03-01T08:26:17;3.30;99.90
23869;DHT22;12115;47.128;15.422;2023-03-01T08:28:46;3.30;99.90
23869;DHT22;12115;47.128;15.422;2023-03-01T08:31:23;3.30;99.90
23869;DHT22;12115;47.128;15.422;2023-03-01T08:33:53;3.30;99.90
23869;DHT22;12115;47.128;15.422;2023-03-01T08:36:29;3.40;99.90
23869;DHT22;12115;47.128;15.422;2023-03-01T08:38:58;3.50;99.90
23869;DHT22;12115;47.128;15.422;2023-03-01T08:41:26;3.50;99.90
23869;DHT22;12115;47.128;15.422;2023-03-01T08:43:54;3.60;99.90
23869;DHT22;12115;47.128;15.422;2023-03-01T08:46:36;3.60;99.90
23869;DHT22;12115;47.128;15.422;2023-03-01T08:49:05;3.70;99.90
23869;DHT22;12115;47.128;15.422;2023-03-01T08:51:34;3.70;99.90
23869;DHT22;12115;47.128;15.422;2023-03-01T08:54:04;3.70;99.90
23869;DHT22;12115;47.128;15.422;2023-03-01T08:56:33;3.70;99.90
23869;DHT22;12115;47.128;15.422;2023-03-01T08:59:00;3.70;99.90
23869;DHT22;12115;47.128;15.422;2023-03-01T09:01:29;3.80;99.90
23869;DHT22;12115;47.128;15.422;2023-03-01T09:03:57;3.80;99.90
23869;DHT22;12115;47.128;15.422;2023-03-01T09:06:24;3.80;99.90
23869;DHT22;12115;47.128;15.422;2023-03-01T09:08:52;3.90;99.90
23869;DHT22;12115;47.128;15.422;2023-03-01T09:11:21;3.90;99.90
23869;DHT22;12115;47.128;15.422;2023-03-01T09:13:49;3.90;99.90
23869;DHT22;12115;47.128;15.422;2023-03-01T09:16:19;3.90;99.90
23869;DHT22;12115;47.128;15.422;2023-03-01T09:18:54;3.90;99.90
23869;DHT22;12115;47.128;15.422;2023-03-01T09:21:23;4.00;99.90
23869;DHT22;12115;47.128;15.422;2023-03-01T09:24:12;4.00;99.90
23869;DHT22;12115;47.128;15.422;2023-03-01T09:26:40;4.00;99.90
23869;DHT22;12115;47.128;15.422;2023-03-01T09:29:08;4.00;99.90
23869;DHT22;12115;47.128;15.422;2023-03-01T09:31:37;4.00;99.90
23869;DHT22;12115;47.128;15.422;2023-03-01T09:34:06;4.00;99.90
23869;DHT22;12115;47.128;15.422;2023-03-01T09:36:34;4.00;99.90
23869;DHT22;12115;47.128;15.422;2023-03-01T09:39:02;4.10;99.90
23869;DHT22;12115;47.128;15.422;2023-03-01T09:47:03;4.10;99.90
23869;DHT22;12115;47.128;15.422;2023-03-01T09:49:35;4.10;99.90
23869;DHT22;12115;47.128;15.422;2023-03-01T09:52:21;4.10;99.90
23869;DHT22;12115;47.128;15.422;2023-03-01T09:54:54;4.10;99.90
23869;DHT22;12115;47.128;15.422;2023-03-01T10:00:37;4.00;99.90
23869;DHT22;12115;47.128;15.422;2023-03-01T10:03:17;4.10;99.90
23869;DHT22;12115;47.128;15.422;2023-03-01T10:08:29;4.20;99.90
23869;DHT22;12115;47.128;15.422;2023-03-01T10:11:00;4.20;99.90
23869;DHT22;12115;47.128;15.422;2023-03-01T10:13:51;4.20;99.90
23869;DHT22;12115;47.128;15.422;2023-03-01T10:16:34;4.30;99.90
23869;DHT22;12115;47.128;15.422;2023-03-01T10:19:05;4.30;99.90
23869;DHT22;12115;47.128;15.422;2023-03-01T10:21:38;4.20;99.90
23869;DHT22;12115;47.128;15.422;2023-03-01T10:24:14;4.30;99.90
23869;DHT22;12115;47.128;15.422;2023-03-01T10:26:58;4.30;99.90
23869;DHT22;12115;47.128;15.422;2023-03-01T10:32:24;4.30;99.90
23869;DHT22;12115;47.128;15.422;2023-03-01T10:34:55;4.30;99.90
23869;DHT22;12115;47.128;15.422;2023-03-01T10:37:24;4.20;99.90
23869;DHT22;12115;47.128;15.422;2023-03-01T10:40:07;4.20;99.90
23869;DHT22;12115;47.128;15.422;2023-03-01T10:42:45;4.10;99.90
23869;DHT22;12115;47.128;15.422;2023-03-01T10:45:30;3.90;99.90
23869;DHT22;12115;47.128;15.422;2023-03-01T10:51:14;4.00;99.90
23869;DHT22;12115;47.128;15.422;2023-03-01T10:53:48;4.00;99.90
23869;DHT22;12115;47.128;15.422;2023-03-01T10:56:17;4.10;99.90
23869;DHT22;12115;47.128;15.422;2023-03-01T11:01:29;4.00;99.90
23869;DHT22;12115;47.128;15.422;2023-03-01T11:06:38;3.90;99.90
23869;DHT22;12115;47.128;15.422;2023-03-01T11:11:45;4.00;99.90
23869;DHT22;12115;47.128;15.422;2023-03-01T11:14:16;4.10;99.90
23869;DHT22;12115;47.128;15.422;2023-03-01T11:17:05;4.20;99.90
23869;DHT22;12115;47.128;15.422;2023-03-01T11:19:39;4.30;99.90
23869;DHT22;12115;47.128;15.422;2023-03-01T11:22:20;4.30;99.90
23869;DHT22;12115;47.128;15.422;2023-03-01T11:24:54;4.30;99.90
23869;DHT22;12115;47.128;15.422;2023-03-01T11:27:43;4.40;99.90
23869;DHT22;12115;47.128;15.422;2023-03-01T11:35:28;4.50;99.90
23869;DHT22;12115;47.128;15.422;2023-03-01T11:43:33;4.60;99.90
23869;DHT22;12115;47.128;15.422;2023-03-01T11:51:47;4.80;99.90
23869;DHT22;12115;47.128;15.422;2023-03-01T11:57:07;4.90;99.90
23869;DHT22;12115;47.128;15.422;2023-03-01T12:05:37;4.90;99.90
23869;DHT22;12115;47.128;15.422;2023-03-01T12:08:26;5.00;99.90
23869;DHT22;12115;47.128;15.422;2023-03-01T12:19:30;5.20;99.90
23869;DHT22;12115;47.128;15.422;2023-03-01T12:27:52;5.30;99.90
23869;DHT22;12115;47.128;15.422;2023-03-01T12:33:26;5.50;99.90
23869;DHT22;12115;47.128;15.422;2023-03-01T12:36:07;5.50;99.90
23869;DHT22;12115;47.128;15.422;2023-03-01T12:39:14;5.60;99.90
23869;DHT22;12115;47.128;15.422;2023-03-01T12:41:46;5.60;99.90
23869;DHT22;12115;47.128;15.422;2023-03-01T12:49:55;5.70;99.90
23869;DHT22;12115;47.128;15.422;2023-03-01T12:55:20;5.80;99.90
23869;DHT22;12115;47.128;15.422;2023-03-01T13:09:20;6.10;99.90
23869;DHT22;12115;47.128;15.422;2023-03-01T13:11:50;6.10;99.90
23869;DHT22;12115;47.128;15.422;2023-03-01T13:16:50;6.20;99.90
23869;DHT22;12115;47.128;15.422;2023-03-01T13:19:22;6.20;99.90
23869;DHT22;12115;47.128;15.422;2023-03-01T13:21:51;6.30;99.90
23869;DHT22;12115;47.128;15.422;2023-03-01T13:29:47;6.40;99.90
23869;DHT22;12115;47.128;15.422;2023-03-01T13:37:45;6.60;99.90
23869;DHT22;12115;47.128;15.422;2023-03-01T13:42:49;6.60;99.90
23869;DHT22;12115;47.128;15.422;2023-03-01T13:48:26;6.60;99.90
23869;DHT22;12115;47.128;15.422;2023-03-01T13:51:01;6.60;99.90
23869;DHT22;12115;47.128;15.422;2023-03-01T13:53:36;6.60;99.90
23869;DHT22;12115;47.128;15.422;2023-03-01T13:56:17;6.60;99.90
23869;DHT22;12115;47.128;15.422;2023-03-01T14:01:31;6.60;99.90
23869;DHT22;12115;47.128;15.422;2023-03-01T14:04:01;6.60;99.90
23869;DHT22;12115;47.128;15.422;2023-03-01T14:06:31;6.60;99.90
23869;DHT22;12115;47.128;15.422;2023-03-01T14:09:19;6.60;99.90
23869;DHT22;12115;47.128;15.422;2023-03-01T14:14:45;6.60;99.90
23869;DHT22;12115;47.128;15.422;2023-03-01T14:18:02;6.50;99.90
23869;DHT22;12115;47.128;15.422;2023-03-01T14:20:26;6.60;99.90
23869;DHT22;12115;47.128;15.422;2023-03-01T14:22:56;6.60;99.90
23869;DHT22;12115;47.128;15.422;2023-03-01T14:25:36;6.60;99.90
23869;DHT22;12115;47.128;15.422;2023-03-01T14:30:48;6.50;99.90
23869;DHT22;12115;47.128;15.422;2023-03-01T14:36:02;6.50;99.90
23869;DHT22;12115;47.128;15.422;2023-03-01T14:43:49;6.50;99.90
23869;DHT22;12115;47.128;15.422;2023-03-01T14:46:26;6.50;99.90
23869;DHT22;12115;47.128;15.422;2023-03-01T14:49:03;6.60;99.90
23869;DHT22;12115;47.128;15.422;2023-03-01T14:51:39;6.60;99.90
23869;DHT22;12115;47.128;15.422;2023-03-01T14:54:42;6.50;99.90
23869;DHT22;12115;47.128;15.422;2023-03-01T14:59:43;6.60;99.90
23869;DHT22;12115;47.128;15.422;2023-03-01T15:02:20;6.60;99.90
23869;DHT22;12115;47.128;15.422;2023-03-01T15:04:54;6.60;99.90
23869;DHT22;12115;47.128;15.422;2023-03-01T15:07:35;6.70;99.90
23869;DHT22;12115;47.128;15.422;2023-03-01T15:10:05;6.70;99.90
23869;DHT22;12115;47.128;15.422;2023-03-01T15:12:38;6.70;99.90
23869;DHT22;12115;47.128;15.422;2023-03-01T15:15:26;6.70;99.90
23869;DHT22;12115;47.128;15.422;2023-03-01T15:17:59;6.70;99.90
23869;DHT22;12115;47.128;15.422;2023-03-01T15:20:28;6.70;99.90
23869;DHT22;12115;47.128;15.422;2023-03-01T15:22:57;6.70;99.90
23869;DHT22;12115;47.128;15.422;2023-03-01T15:25:28;6.70;99.90
23869;DHT22;12115;47.128;15.422;2023-03-01T15:27:58;6.70;99.90
23869;DHT22;12115;47.128;15.422;2023-03-01T15:30:33;6.80;99.90
23869;DHT22;12115;47.128;15.422;2023-03-01T15:35:51;6.80;99.90
23869;DHT22;12115;47.128;15.422;2023-03-01T15:41:05;6.80;99.90
23869;DHT22;12115;47.128;15.422;2023-03-01T15:43:46;6.80;99.90
23869;DHT22;12115;47.128;15.422;2023-03-01T15:46:18;6.80;99.90
23869;DHT22;12115;47.128;15.422;2023-03-01T15:48:46;6.70;99.90
23869;DHT22;12115;47.128;15.422;2023-03-01T15:51:14;6.70;99.90
23869;DHT22;12115;47.128;15.422;2023-03-01T15:53:48;6.70;99.90
23869;DHT22;12115;47.128;15.422;2023-03-01T15:56:20;6.70;99.90
23869;DHT22;12115;47.128;15.422;2023-03-01T15:58:48;6.70;99.90
23869;DHT22;12115;47.128;15.422;2023-03-01T16:01:17;6.70;99.90
23869;DHT22;12115;47.128;15.422;2023-03-01T16:03:45;6.70;99.90
23869;DHT22;12115;47.128;15.422;2023-03-01T16:06:12;6.70;99.90
23869;DHT22;12115;47.128;15.422;2023-03-01T16:08:40;6.70;99.90
23869;DHT22;12115;47.128;15.422;2023-03-01T16:11:17;6.70;99.90
23869;DHT22;12115;47.128;15.422;2023-03-01T16:13:45;6.70;99.90
23869;DHT22;12115;47.128;15.422;2023-03-01T16:16:15;6.60;99.90
23869;DHT22;12115;47.128;15.422;2023-03-01T16:18:45;6.60;99.90
23869;DHT22;12115;47.128;15.422;2023-03-01T16:21:22;6.60;99.90
23869;DHT22;12115;47.128;15.422;2023-03-01T16:23:50;6.60;99.90
23869;DHT22;12115;47.128;15.422;2023-03-01T16:26:19;6.60;99.90
23869;DHT22;12115;47.128;15.422;2023-03-01T16:28:48;6.60;99.90
23869;DHT22;12115;47.128;15.422;2023-03-01T16:31:19;6.50;99.90
23869;DHT22;12115;47.128;15.422;2023-03-01T16:33:49;6.60;99.90
23869;DHT22;12115;47.128;15.422;2023-03-01T16:36:19;6.60;99.90
23869;DHT22;12115;47.128;15.422;2023-03-01T16:38:47;6.60;99.90
23869;DHT22;12115;47.128;15.422;2023-03-01T16:41:18;6.60;99.90
23869;DHT22;12115;47.128;15.422;2023-03-01T16:43:47;6.60;99.90
23869;DHT22;12115;47.128;15.422;2023-03-01T16:46:21;6.60;99.90
23869;DHT22;12115;47.128;15.422;2023-03-01T16:48:50;6.60;99.90
23869;DHT22;12115;47.128;15.422;2023-03-01T16:51:19;6.50;99.90
23869;DHT22;12115;47.128;15.422;2023-03-01T16:53:47;6.40;99.90
23869;DHT22;12115;47.128;15.422;2023-03-01T16:56:15;6.50;99.90
23869;DHT22;12115;47.128;15.422;2023-03-01T16:58:43;6.50;99.90
23869;DHT22;12115;47.128;15.422;2023-03-01T17:01:19;6.50;99.90
23869;DHT22;12115;47.128;15.422;2023-03-01T17:03:47;6.50;99.90
23869;DHT22;12115;47.128;15.422;2023-03-01T17:06:19;6.50;99.90
23869;DHT22;12115;47.128;15.422;2023-03-01T17:08:48;6.40;99.90
23869;DHT22;12115;47.128;15.422;2023-03-01T17:11:17;6.50;99.90
23869;DHT22;12115;47.128;15.422;2023-03-01T17:13:46;6.40;99.90
23869;DHT22;12115;47.128;15.422;2023-03-01T17:16:17;6.40;99.90
23869;DHT22;12115;47.128;15.422;2023-03-01T17:18:50;6.30;99.90
23869;DHT22;12115;47.128;15.422;2023-03-01T17:21:18;6.30;99.90
23869;DHT22;12115;47.128;15.422;2023-03-01T17:23:46;6.40;99.90
23869;DHT22;12115;47.128;15.422;2023-03-01T17:26:16;6.40;99.90
23869;DHT22;12115;47.128;15.422;2023-03-01T17:28:49;6.30;99.90
23869;DHT22;12115;47.128;15.422;2023-03-01T17:31:25;6.30;99.90
23869;DHT22;12115;47.128;15.422;2023-03-01T17:33:55;6.20;99.90
23869;DHT22;12115;47.128;15.422;2023-03-01T17:36:26;6.20;99.90
23869;DHT22;12115;47.128;15.422;2023-03-01T17:38:54;6.20;99.90
23869;DHT22;12115;47.128;15.422;2023-03-01T17:41:22;6.20;99.90
23869;DHT22;12115;47.128;15.422;2023-03-01T17:43:51;6.20;99.90
23869;DHT22;12115;47.128;15.422;2023-03-01T17:46:20;6.20;99.90
23869;DHT22;12115;47.128;15.422;2023-03-01T17:48:49;6.20;99.90
23869;DHT22;12115;47.128;15.422;2023-03-01T17:51:16;6.20;99.90
23869;DHT22;12115;47.128;15.422;2023-03-01T17:53:46;6.20;99.90
23869;DHT22;12115;47.128;15.422;2023-03-01T17:56:20;6.20;99.90
23869;DHT22;12115;47.128;15.422;2023-03-01T17:58:48;6.20;99.90
23869;DHT22;12115;47.128;15.422;2023-03-01T18:01:25;6.20;99.90
23869;DHT22;12115;47.128;15.422;2023-03-01T18:03:53;6.20;99.90
23869;DHT22;12115;47.128;15.422;2023-03-01T18:06:27;6.10;99.90
23869;DHT22;12115;47.128;15.422;2023-03-01T18:09:00;6.10;99.90
23869;DHT22;12115;47.128;15.422;2023-03-01T18:11:27;6.00;99.90
23869;DHT22;12115;47.128;15.422;2023-03-01T18:13:56;6.00;99.90